createdAt,value
2022-09-01T00:08:20.885Z,41.14
2022-09-01T00:13:13.296Z,40.66
2022-09-01T00:18:06.199Z,40.89
2022-09-01T00:22:58.883Z,40.96
2022-09-01T00:27:51.501Z,40.64
2022-09-01T00:32:44.063Z,40.66
2022-09-01T00:37:36.755Z,40.91
2022-09-01T00:42:29.554Z,40.81
2022-09-01T00:47:22.421Z,40.9
2022-09-01T00:52:15.054Z,40.81
2022-09-01T00:57:07.669Z,40.92
2022-09-01T01:02:00.471Z,40.39
2022-09-01T01:06:53.030Z,40.63
2022-09-01T01:11:45.744Z,40.24
2022-09-01T01:16:38.237Z,40.58
2022-09-01T01:21:30.982Z,40.68
2022-09-01T01:26:23.645Z,40.65
2022-09-01T01:31:16.558Z,40.52
2022-09-01T01:36:08.886Z,40.5
2022-09-01T01:41:01.641Z,40.32
2022-09-01T01:45:54.538Z,40.39
2022-09-01T01:50:47.460Z,40.37
2022-09-01T01:55:40.030Z,40.57
2022-09-01T02:00:32.617Z,40.46
2022-09-01T02:05:25.300Z,40.6
2022-09-01T02:10:17.882Z,40.49
2022-09-01T02:15:10.341Z,40.43
2022-09-01T02:20:03.075Z,40.55
2022-09-01T02:24:55.764Z,40.36
2022-09-01T02:29:48.546Z,40.5
2022-09-01T02:34:41.287Z,40.27
2022-09-01T02:39:33.945Z,39.91
2022-09-01T02:44:26.777Z,40.04
2022-09-01T02:49:19.522Z,40.35
2022-09-01T02:54:12.229Z,39.89
2022-09-01T02:59:04.941Z,40.19
2022-09-01T03:03:57.724Z,40.16
2022-09-01T03:08:50.579Z,40.07
2022-09-01T03:13:42.992Z,40.03
2022-09-01T03:18:35.563Z,40.05
2022-09-01T03:23:33.945Z,39.93
2022-09-01T03:28:25.691Z,39.79
2022-09-01T03:33:18.250Z,40.02
2022-09-01T03:38:10.715Z,40.03
2022-09-01T03:43:03.573Z,39.9
2022-09-01T03:47:56.203Z,39.93
2022-09-01T03:52:48.985Z,39.97
2022-09-01T03:57:41.751Z,39.84
2022-09-01T04:02:34.521Z,39.97
2022-09-01T04:07:27.034Z,39.55
2022-09-01T04:12:19.591Z,39.75
2022-09-01T04:17:12.415Z,39.9
2022-09-01T04:22:05.033Z,39.87
2022-09-01T04:26:57.548Z,39.8
2022-09-01T04:31:50.266Z,39.9
2022-09-01T04:36:43.235Z,39.78
2022-09-01T04:41:35.836Z,39.82
2022-09-01T04:46:28.572Z,39.9
2022-09-01T04:51:21.335Z,39.72
2022-09-01T04:56:13.865Z,39.82
2022-09-01T05:01:06.596Z,39.85
2022-09-01T05:05:59.499Z,39.73
2022-09-01T05:10:52.311Z,39.69
2022-09-01T05:15:44.740Z,39.98
2022-09-01T05:20:37.453Z,39.79
2022-09-01T05:25:30.338Z,39.62
2022-09-01T05:30:23.091Z,39.66
2022-09-01T05:35:15.678Z,39.82
2022-09-01T05:40:08.182Z,39.93
2022-09-01T05:45:00.668Z,39.72
2022-09-01T05:49:52.970Z,40.54
2022-09-01T05:54:45.362Z,41.84
2022-09-01T05:59:38.019Z,41.33
2022-09-01T06:04:30.923Z,41.7
2022-09-01T06:09:23.307Z,42.86
2022-09-01T06:14:16.289Z,43.43
2022-09-01T06:19:08.099Z,46.09
2022-09-01T06:24:01.245Z,42.32
2022-09-01T06:28:54.167Z,44.66
2022-09-01T06:33:46.695Z,43.5
2022-09-01T06:38:38.997Z,44.1
2022-09-01T06:43:31.724Z,44
2022-09-01T06:48:24.661Z,43.84
2022-09-01T06:53:34.209Z,43.36
2022-09-01T06:58:18.143Z,43.48
2022-09-01T07:03:03.390Z,41.92
2022-09-01T07:08:11.772Z,42.26
2022-09-01T07:13:17.249Z,44.67
2022-09-01T07:17:42.262Z,44.9
2022-09-01T07:22:36.928Z,44.32
2022-09-01T07:27:35.578Z,43.99
2022-09-01T07:51:50.473Z,45.12
2022-09-01T07:56:43.152Z,44.95
2022-09-01T08:01:35.828Z,45.47
2022-09-01T08:06:28.564Z,44.66
2022-09-01T08:11:25.283Z,43.95
2022-09-01T08:16:17.927Z,44.87
2022-09-01T08:21:06.536Z,44.74
2022-09-01T08:25:59.249Z,44.34
2022-09-01T08:30:52.725Z,43.62
2022-09-01T08:35:44.575Z,43.55
2022-09-01T08:40:37.692Z,42.49
2022-09-01T08:45:30.597Z,42.31
2022-09-01T08:50:23.479Z,42.09
2022-09-01T08:55:11.473Z,41.96
2022-09-01T09:00:04.129Z,41.75
2022-09-01T09:04:57.711Z,41.79
2022-09-01T09:09:53.973Z,41.78
2022-09-01T09:14:42.969Z,41.64
2022-09-01T09:19:36.045Z,41.56
2022-09-01T09:24:37.036Z,41.53
2022-09-01T09:29:16.442Z,41.43
2022-09-01T09:34:08.863Z,41.53
2022-09-01T09:39:02.919Z,41.44
2022-09-01T09:43:55.643Z,41.38
2022-09-01T09:48:48.378Z,41.18
2022-09-01T09:53:41.182Z,41.23
2022-09-01T09:58:33.881Z,41.23
2022-09-01T10:03:22.059Z,41.21
2022-09-01T10:08:14.402Z,41
2022-09-01T10:13:08.314Z,40.82
2022-09-01T10:18:30.565Z,40.79
2022-09-01T10:22:53.883Z,40.93
2022-09-01T10:27:46.533Z,40.85
2022-09-01T10:32:47.921Z,40.78
2022-09-01T10:37:32.510Z,40.69
2022-09-01T10:42:25.415Z,40.55
2022-09-01T10:47:18.297Z,40.58
2022-09-01T10:52:13.928Z,40.27
2022-09-01T10:57:08.832Z,40.14
2022-09-01T11:02:22.694Z,40.22
2022-09-01T11:11:42.246Z,40.11
2022-09-01T11:16:49.990Z,39.37
2022-09-01T11:21:27.924Z,38.22
2022-09-01T11:26:20.657Z,38.74
2022-09-01T11:31:13.667Z,38.04
2022-09-01T11:36:06.214Z,37.89
2022-09-01T11:40:59.062Z,36.96
2022-09-01T11:45:51.729Z,36.95
2022-09-01T11:50:44.321Z,36.99
2022-09-01T11:55:37.034Z,38.93
2022-09-01T12:00:29.720Z,36.74
2022-09-01T12:05:22.550Z,38.67
2022-09-01T12:10:15.141Z,35.51
2022-09-01T12:15:08.033Z,36.51
2022-09-01T12:20:00.546Z,36.06
2022-09-01T12:24:53.434Z,35.99
2022-09-01T12:29:45.756Z,35.4
2022-09-01T12:34:38.490Z,35.61
2022-09-01T12:39:31.198Z,35.61
2022-09-01T12:44:23.936Z,35.54
2022-09-01T12:49:16.753Z,35.64
2022-09-01T12:54:09.726Z,35.33
2022-09-01T12:59:02.541Z,35.65
2022-09-01T13:03:55.139Z,35.39
2022-09-01T13:08:47.919Z,35.48
2022-09-01T13:13:40.639Z,35.39
2022-09-01T13:18:28.777Z,35.21
2022-09-01T13:23:21.432Z,35.51
2022-09-01T13:28:15.384Z,34.62
2022-09-01T13:38:00.870Z,34.65
2022-09-01T13:57:36.044Z,35.15
2022-09-01T14:02:24.304Z,35.28
2022-09-01T14:07:17.120Z,34.89
2022-09-01T14:17:02.726Z,34.85
2022-09-01T14:21:50.664Z,34.93
2022-09-01T14:26:43.365Z,35.07
2022-09-01T14:31:37.453Z,34.96
2022-09-01T14:36:30.226Z,34.6
2022-09-01T14:41:23.042Z,34.37
2022-09-01T14:46:15.661Z,34
2022-09-01T14:51:03.464Z,33.94
2022-09-01T14:55:57.049Z,33.64
2022-09-01T15:00:49.932Z,33.79
2022-09-01T15:05:42.520Z,33.75
2022-09-01T15:10:35.041Z,33.89
2022-09-01T15:15:27.848Z,33.43
2022-09-01T15:20:20.546Z,33.7
2022-09-01T15:25:13.377Z,33.81
2022-09-01T15:30:05.850Z,33.66
2022-09-01T15:34:58.711Z,33.45
2022-09-01T15:39:51.635Z,33.54
2022-09-01T15:44:44.426Z,33.48
2022-09-01T15:49:36.927Z,33.64
2022-09-01T15:54:30.636Z,33.63
2022-09-01T15:59:22.513Z,33.62
2022-09-01T16:04:18.586Z,34.95
2022-09-01T16:09:07.998Z,33.19
2022-09-01T16:14:00.771Z,33.21
2022-09-01T16:18:53.411Z,33.18
2022-09-01T16:23:45.959Z,32.95
2022-09-01T16:28:38.563Z,33.14
2022-09-01T16:33:31.451Z,33.53
2022-09-01T16:38:24.191Z,33.42
2022-09-01T16:43:16.657Z,33.04
2022-09-01T16:48:09.506Z,32.76
2022-09-01T16:53:02.502Z,33.29
2022-09-01T16:57:59.129Z,35.14
2022-09-01T17:02:47.841Z,33.6
2022-09-01T17:07:40.883Z,32.5
2022-09-01T17:12:33.670Z,33.14
2022-09-01T17:17:26.697Z,33.16
2022-09-01T17:22:19.327Z,33.63
2022-09-01T17:27:12.207Z,33.75
2022-09-01T17:32:05.062Z,33.01
2022-09-01T17:36:57.454Z,32.02
2022-09-01T17:41:49.727Z,31.46
2022-09-01T17:46:42.564Z,31.92
2022-09-01T17:51:37.109Z,31.98
2022-09-01T17:56:29.356Z,32.06
2022-09-01T18:01:21.956Z,32.02
2022-09-01T18:06:14.547Z,32.07
2022-09-01T18:11:07.178Z,32.39
2022-09-01T18:16:00.777Z,32.58
2022-09-01T18:20:52.655Z,32.68
2022-09-01T18:25:45.447Z,32.26
2022-09-01T18:30:52.537Z,32.45
2022-09-01T18:35:26.080Z,32.76
2022-09-01T18:40:18.535Z,32.97
2022-09-01T18:45:12.690Z,33.11
2022-09-01T18:50:00.365Z,33.63
2022-09-01T18:54:52.840Z,33.55
2022-09-01T19:04:40.800Z,34.01
2022-09-01T19:09:33.075Z,34.08
2022-09-01T19:14:25.858Z,34.28
2022-09-01T19:24:06.576Z,34.33
2022-09-01T19:33:52.837Z,34.59
2022-09-01T19:38:46.084Z,34.69
2022-09-01T19:43:38.833Z,34.8
2022-09-01T19:48:31.392Z,34.88
2022-09-01T19:53:24.125Z,34.69
2022-09-01T19:58:16.614Z,34.99
2022-09-01T20:03:09.396Z,34.91
2022-09-01T20:08:01.933Z,34.76
2022-09-01T20:12:54.577Z,34.64
2022-09-01T20:17:47.229Z,34.92
2022-09-01T20:22:39.875Z,35.18
2022-09-01T20:27:32.312Z,35.26
2022-09-01T20:32:24.985Z,35.33
2022-09-01T20:37:17.631Z,35.38
2022-09-01T20:42:10.320Z,35.58
2022-09-01T20:47:03.163Z,35.42
2022-09-01T20:51:55.964Z,35.38
2022-09-01T20:56:48.601Z,35.47
2022-09-01T21:01:40.864Z,35.48
2022-09-01T21:06:33.448Z,35.62
2022-09-01T21:11:26.237Z,35.49
2022-09-01T21:16:18.789Z,35.42
2022-09-01T21:21:11.548Z,35.65
2022-09-01T21:26:04.150Z,35.87
2022-09-01T21:30:56.943Z,35.68
2022-09-01T21:35:49.765Z,35.9
2022-09-01T21:40:42.611Z,35.83
2022-09-01T21:45:35.166Z,36.14
2022-09-01T21:50:27.855Z,36.05
2022-09-01T21:55:22.821Z,36.17
2022-09-01T22:00:12.961Z,36.14
2022-09-01T22:05:05.603Z,36.23
2022-09-01T22:09:58.270Z,36.24
2022-09-01T22:14:51.061Z,36.36
2022-09-01T22:19:43.863Z,36.38
2022-09-01T22:24:36.467Z,36.21
2022-09-01T22:29:29.095Z,36.38
2022-09-01T22:34:21.278Z,36.46
2022-09-01T22:39:14.361Z,36.49
2022-09-01T22:44:06.922Z,36.44
2022-09-01T22:48:59.668Z,36.52
2022-09-01T22:53:52.278Z,36.58
2022-09-01T22:58:44.902Z,36.48
2022-09-01T23:03:37.587Z,36.39
2022-09-01T23:08:30.197Z,36.64
2022-09-01T23:13:22.991Z,36.33
2022-09-01T23:18:15.717Z,36.56
2022-09-01T23:23:08.529Z,36.62
2022-09-01T23:28:01.041Z,36.67
2022-09-01T23:32:53.687Z,36.74
2022-09-01T23:37:46.507Z,36.65
2022-09-01T23:42:39.028Z,36.7
2022-09-01T23:47:31.710Z,36.82
2022-09-01T23:52:24.316Z,36.75
2022-09-01T23:57:16.894Z,36.76
